Time;durP1;ratioP1;P1;durP2;ratioP2;P2;SDS_P1;SDS_P2;PMS_P1;PMS_P2;Temp;Humidity;BMP_temperature;BMP_pressure;BME280_temperature;BME280_humidity;BME280_pressure;Samples;Min_cycle;Max_cycle;Signal;HPM_P1;HPM_P2
2023/07/22 00:00:14;;;;;;;2.30;2.10;;;;;;;;;;5027288;28;20284;-77
2023/07/22 00:02:41;;;;;;;2.13;1.93;;;;;;;;;;5027049;28;20676;-77
2023/07/22 00:05:08;;;;;;;3.50;2.17;;;;;;;;;;5028949;28;20202;-77
2023/07/22 00:07:34;;;;;;;3.50;2.30;;;;;;;;;;5039994;28;20206;-77
2023/07/22 00:10:00;;;;;;;2.20;2.00;;;;;;;;;;5012196;28;20363;-77
2023/07/22 00:12:27;;;;;;;2.63;2.23;;;;;;;;;;5051001;28;20182;-77
2023/07/22 00:14:53;;;;;;;3.63;2.13;;;;;;;;;;5050103;28;20186;-77
2023/07/22 00:17:20;;;;;;;2.43;2.23;;;;;;;;;;5051907;28;20257;-77
2023/07/22 00:19:48;;;;;;;4.50;2.00;;;;;;;;;;5052516;28;20182;-77
2023/07/22 00:22:15;;;;;;;2.40;2.20;;;;;;;;;;5049302;28;20770;-77
2023/07/22 00:24:41;;;;;;;2.50;2.30;;;;;;;;;;5034253;28;20243;-77
2023/07/22 00:27:08;;;;;;;2.57;2.37;;;;;;;;;;5035708;28;20221;-77
2023/07/22 00:29:38;;;;;;;2.47;2.23;;;;;;;;;;5022057;28;20222;-77
2023/07/22 00:32:07;;;;;;;3.70;2.30;;;;;;;;;;5051203;28;20194;-77
2023/07/22 00:34:33;;;;;;;2.13;1.93;;;;;;;;;;5052223;28;20584;-77
2023/07/22 00:36:59;;;;;;;2.57;2.37;;;;;;;;;;5048288;28;20301;-77
2023/07/22 00:39:25;;;;;;;3.63;2.20;;;;;;;;;;5027206;28;20589;-77
2023/07/22 00:41:51;;;;;;;2.47;2.27;;;;;;;;;;5016354;28;20186;-77
2023/07/22 00:44:17;;;;;;;4.23;2.30;;;;;;;;;;5051596;28;20247;-77
2023/07/22 00:46:44;;;;;;;2.53;2.33;;;;;;;;;;5014338;28;20217;-77
2023/07/22 00:49:10;;;;;;;3.00;2.53;;;;;;;;;;5021033;28;20178;-77
2023/07/22 00:51:36;;;;;;;2.60;2.40;;;;;;;;;;5027154;28;20183;-77
2023/07/22 00:54:04;;;;;;;2.77;2.57;;;;;;;;;;5053334;28;20197;-77
2023/07/22 00:56:34;;;;;;;3.67;2.70;;;;;;;;;;5043642;28;20228;-77
2023/07/22 00:59:01;;;;;;;2.70;2.50;;;;;;;;;;5032786;28;20633;-76
2023/07/22 01:01:27;;;;;;;2.60;2.40;;;;;;;;;;5033210;28;20653;-77
2023/07/22 01:03:53;;;;;;;2.60;2.30;;;;;;;;;;5037110;28;20178;-77
2023/07/22 01:06:20;;;;;;;2.33;2.13;;;;;;;;;;5030501;28;20681;-77
2023/07/22 01:08:46;;;;;;;2.37;2.17;;;;;;;;;;5027865;28;20182;-77
2023/07/22 01:11:13;;;;;;;2.43;2.23;;;;;;;;;;5050735;28;20667;-77
2023/07/22 01:13:39;;;;;;;2.57;2.37;;;;;;;;;;5052879;28;20178;-77
2023/07/22 01:16:06;;;;;;;2.73;2.30;;;;;;;;;;5046111;28;20221;-77
2023/07/22 01:18:33;;;;;;;2.67;2.37;;;;;;;;;;5052989;28;20190;-77
2023/07/22 01:20:59;;;;;;;2.30;2.10;;;;;;;;;;5052594;28;20296;-77
2023/07/22 01:23:26;;;;;;;3.67;2.50;;;;;;;;;;5052263;28;20567;-77
2023/07/22 01:25:52;;;;;;;3.43;2.67;;;;;;;;;;5033976;28;20209;-77
2023/07/22 01:28:18;;;;;;;2.70;2.50;;;;;;;;;;5034625;28;20265;-78
2023/07/22 01:30:45;;;;;;;2.90;2.60;;;;;;;;;;5017486;28;20193;-77
2023/07/22 01:33:11;;;;;;;2.53;2.33;;;;;;;;;;5034346;28;20223;-77
2023/07/22 01:35:37;;;;;;;2.83;2.40;;;;;;;;;;5055473;28;20586;-77
2023/07/22 01:38:03;;;;;;;4.63;2.50;;;;;;;;;;5051161;28;20753;-77
2023/07/22 01:40:31;;;;;;;2.43;2.23;;;;;;;;;;5026309;28;20251;-77
2023/07/22 01:42:57;;;;;;;3.97;2.70;;;;;;;;;;5047700;28;20181;-77
2023/07/22 01:45:23;;;;;;;2.60;2.40;;;;;;;;;;5030107;28;20291;-76
2023/07/22 01:47:49;;;;;;;2.87;2.60;;;;;;;;;;5044188;28;20376;-77
2023/07/22 01:50:15;;;;;;;3.33;2.60;;;;;;;;;;5021520;28;20247;-77
2023/07/22 01:52:42;;;;;;;2.50;2.30;;;;;;;;;;5046900;28;20181;-77
2023/07/22 01:55:10;;;;;;;2.60;2.20;;;;;;;;;;5045447;28;20282;-77
2023/07/22 01:57:36;;;;;;;3.07;2.10;;;;;;;;;;5031020;28;20288;-77
2023/07/22 02:00:05;;;;;;;3.07;2.30;;;;;;;;;;5047959;28;20232;-77
2023/07/22 02:02:39;;;;;;;2.57;2.37;;;;;;;;;;5045642;28;20184;-77
2023/07/22 02:05:06;;;;;;;2.80;2.40;;;;;;;;;;5028834;28;20706;-76
2023/07/22 02:07:32;;;;;;;2.57;2.37;;;;;;;;;;5046827;28;20244;-77
2023/07/22 02:09:58;;;;;;;2.87;2.40;;;;;;;;;;5047416;28;20822;-77
2023/07/22 02:12:24;;;;;;;2.43;2.27;;;;;;;;;;5049053;28;20214;-77
2023/07/22 02:14:50;;;;;;;2.50;2.30;;;;;;;;;;5030397;28;20181;-77
2023/07/22 02:17:17;;;;;;;2.53;2.33;;;;;;;;;;5028060;28;20241;-77
2023/07/22 02:19:43;;;;;;;2.50;2.30;;;;;;;;;;5045980;28;20201;-77
2023/07/22 02:22:10;;;;;;;3.10;2.80;;;;;;;;;;5023257;28;20268;-77
2023/07/22 02:24:36;;;;;;;4.50;2.50;;;;;;;;;;5024075;28;20584;-77
2023/07/22 02:27:02;;;;;;;3.53;2.17;;;;;;;;;;5040012;28;20202;-77
2023/07/22 02:29:28;;;;;;;2.70;2.50;;;;;;;;;;5045640;28;20186;-77
2023/07/22 02:31:54;;;;;;;3.30;2.30;;;;;;;;;;5033539;28;20225;-77
2023/07/22 02:34:21;;;;;;;2.80;2.57;;;;;;;;;;5034354;28;20178;-77
2023/07/22 02:36:48;;;;;;;2.63;2.43;;;;;;;;;;5033596;28;20202;-77
2023/07/22 02:39:14;;;;;;;2.57;2.37;;;;;;;;;;5046594;28;20509;-77
2023/07/22 02:41:41;;;;;;;2.80;2.60;;;;;;;;;;5029454;28;20208;-77
2023/07/22 02:44:07;;;;;;;2.60;2.40;;;;;;;;;;5034537;28;20216;-77
2023/07/22 02:46:34;;;;;;;2.60;2.40;;;;;;;;;;5048934;28;20222;-77
2023/07/22 02:49:00;;;;;;;3.43;2.77;;;;;;;;;;5050431;28;20248;-77
2023/07/22 02:51:26;;;;;;;5.83;2.70;;;;;;;;;;5027719;28;20269;-77
2023/07/22 02:53:52;;;;;;;2.87;2.67;;;;;;;;;;5034579;28;20185;-76
2023/07/22 02:56:18;;;;;;;2.90;2.67;;;;;;;;;;5043477;28;20206;-77
2023/07/22 02:58:44;;;;;;;2.57;2.37;;;;;;;;;;5034721;28;20190;-76
2023/07/22 03:01:11;;;;;;;3.10;2.80;;;;;;;;;;5033342;28;20182;-77
2023/07/22 03:03:39;;;;;;;3.33;3.03;;;;;;;;;;5033357;28;20186;-77
2023/07/22 03:06:07;;;;;;;4.17;3.00;;;;;;;;;;5045468;28;20228;-77
2023/07/22 03:08:33;;;;;;;2.90;2.67;;;;;;;;;;5045205;28;20183;-76
2023/07/22 03:11:00;;;;;;;3.30;3.00;;;;;;;;;;5049640;28;20239;-77
2023/07/22 03:13:29;;;;;;;3.57;3.10;;;;;;;;;;5051615;28;20224;-76
2023/07/22 03:15:56;;;;;;;3.20;2.90;;;;;;;;;;5017506;28;20578;-77
2023/07/22 03:18:22;;;;;;;3.20;2.80;;;;;;;;;;5034589;28;20193;-77
2023/07/22 03:20:49;;;;;;;2.80;2.60;;;;;;;;;;5021442;28;20182;-77
2023/07/22 03:23:15;;;;;;;3.10;2.80;;;;;;;;;;5018237;28;20209;-77
2023/07/22 03:25:42;;;;;;;3.70;3.00;;;;;;;;;;5033727;28;20213;-77
2023/07/22 03:28:08;;;;;;;3.53;3.17;;;;;;;;;;5053914;28;20216;-77
2023/07/22 03:30:34;;;;;;;3.03;2.83;;;;;;;;;;5056491;28;20218;-77
2023/07/22 03:33:01;;;;;;;3.47;3.17;;;;;;;;;;5036808;28;20174;-77
2023/07/22 03:35:27;;;;;;;5.60;3.27;;;;;;;;;;5031189;28;20205;-76
2023/07/22 03:37:54;;;;;;;3.33;3.03;;;;;;;;;;5030238;28;20232;-77
2023/07/22 03:40:20;;;;;;;3.77;3.30;;;;;;;;;;5031558;28;20232;-77
2023/07/22 03:42:47;;;;;;;3.33;3.00;;;;;;;;;;5020436;28;20776;-77
2023/07/22 03:45:13;;;;;;;5.40;3.13;;;;;;;;;;5046294;28;20206;-78
2023/07/22 03:47:40;;;;;;;6.43;3.23;;;;;;;;;;5033604;28;20249;-77
2023/07/22 03:50:07;;;;;;;3.20;2.90;;;;;;;;;;5014829;28;20190;-77
2023/07/22 03:52:33;;;;;;;3.50;2.97;;;;;;;;;;5047691;28;20229;-77
2023/07/22 03:54:59;;;;;;;3.13;2.83;;;;;;;;;;5047743;28;20189;-77
2023/07/22 03:57:26;;;;;;;3.00;2.80;;;;;;;;;;5035495;28;20775;-77
2023/07/22 03:59:53;;;;;;;4.40;3.00;;;;;;;;;;5035925;28;20178;-77
2023/07/22 04:02:20;;;;;;;3.03;2.73;;;;;;;;;;5031805;28;20189;-77
2023/07/22 04:04:46;;;;;;;2.90;2.70;;;;;;;;;;5027126;28;20206;-77
2023/07/22 04:07:12;;;;;;;3.60;3.00;;;;;;;;;;5028257;28;21001;-77
2023/07/22 04:09:40;;;;;;;3.97;2.83;;;;;;;;;;5030236;28;20264;-77
2023/07/22 04:12:06;;;;;;;3.33;3.03;;;;;;;;;;5049324;28;20653;-77
2023/07/22 04:14:32;;;;;;;3.77;3.37;;;;;;;;;;5046675;28;20193;-77
2023/07/22 04:16:59;;;;;;;3.50;3.20;;;;;;;;;;5030406;28;20255;-77
2023/07/22 04:19:25;;;;;;;3.67;3.37;;;;;;;;;;5018658;28;20271;-77
2023/07/22 04:21:52;;;;;;;3.60;3.27;;;;;;;;;;5032898;28;20197;-77
2023/07/22 04:24:19;;;;;;;3.50;3.20;;;;;;;;;;5018254;28;20672;-77
2023/07/22 04:26:45;;;;;;;3.47;3.17;;;;;;;;;;5035736;28;20206;-77
2023/07/22 04:29:12;;;;;;;3.50;3.20;;;;;;;;;;5041540;28;20220;-77
2023/07/22 04:31:38;;;;;;;3.70;3.27;;;;;;;;;;5016667;28;20194;-77
2023/07/22 04:34:07;;;;;;;3.70;3.30;;;;;;;;;;5055005;28;20182;-77
2023/07/22 04:36:34;;;;;;;3.47;3.17;;;;;;;;;;5034806;28;20217;-77
2023/07/22 04:39:00;;;;;;;3.03;2.73;;;;;;;;;;5038377;28;20181;-77
2023/07/22 04:41:26;;;;;;;3.37;3.10;;;;;;;;;;5055155;28;20188;-77
2023/07/22 04:43:53;;;;;;;3.27;2.97;;;;;;;;;;5051523;28;20182;-77
2023/07/22 04:46:19;;;;;;;3.63;3.33;;;;;;;;;;5031372;28;20202;-77
2023/07/22 04:48:45;;;;;;;7.50;3.57;;;;;;;;;;5052515;22;20829;-78
2023/07/22 04:51:11;;;;;;;3.67;3.30;;;;;;;;;;5031260;28;20188;-78
2023/07/22 04:53:37;;;;;;;3.30;3.00;;;;;;;;;;5034280;28;20193;-78
2023/07/22 04:56:04;;;;;;;3.83;3.53;;;;;;;;;;5017901;28;20634;-76
2023/07/22 04:58:30;;;;;;;3.60;3.30;;;;;;;;;;5019525;28;20308;-77
2023/07/22 05:00:56;;;;;;;3.57;3.27;;;;;;;;;;5031322;28;20647;-78
2023/07/22 05:03:25;;;;;;;3.77;3.23;;;;;;;;;;5034587;28;20353;-78
2023/07/22 05:05:51;;;;;;;3.80;3.00;;;;;;;;;;5018705;28;20309;-78
2023/07/22 05:08:17;;;;;;;3.17;2.87;;;;;;;;;;5035771;28;20221;-78
2023/07/22 05:10:43;;;;;;;3.10;2.80;;;;;;;;;;5034002;28;20182;-77
2023/07/22 05:13:09;;;;;;;3.10;2.80;;;;;;;;;;5034611;28;20217;-78
2023/07/22 05:15:35;;;;;;;3.63;2.90;;;;;;;;;;5016492;28;20215;-78
2023/07/22 05:18:02;;;;;;;3.80;3.50;;;;;;;;;;5032946;28;20253;-78
2023/07/22 05:20:28;;;;;;;3.60;3.30;;;;;;;;;;5028437;28;20269;-75
2023/07/22 05:22:54;;;;;;;4.67;3.37;;;;;;;;;;5028188;28;20171;-78
2023/07/22 05:25:20;;;;;;;5.07;3.50;;;;;;;;;;5028425;28;20206;-77
2023/07/22 05:27:46;;;;;;;3.93;3.17;;;;;;;;;;5032803;28;20209;-78
2023/07/22 05:30:12;;;;;;;3.57;3.07;;;;;;;;;;5012347;28;20240;-78
2023/07/22 05:32:38;;;;;;;3.60;3.07;;;;;;;;;;5034585;28;20193;-76
2023/07/22 05:35:05;;;;;;;3.50;3.00;;;;;;;;;;5033485;28;20186;-74
2023/07/22 05:37:32;;;;;;;2.87;2.67;;;;;;;;;;5027708;28;20213;-77
2023/07/22 05:39:58;;;;;;;4.57;3.10;;;;;;;;;;5011435;28;20195;-77
2023/07/22 05:42:24;;;;;;;3.70;3.30;;;;;;;;;;5028557;28;20206;-77
2023/07/22 05:44:50;;;;;;;4.37;3.50;;;;;;;;;;5028754;28;20633;-73
2023/07/22 05:47:16;;;;;;;4.33;3.43;;;;;;;;;;5008458;28;20221;-72
2023/07/22 05:49:42;;;;;;;4.00;3.60;;;;;;;;;;5010738;28;20561;-76
2023/07/22 05:52:08;;;;;;;4.87;3.57;;;;;;;;;;5011274;28;20645;-77
2023/07/22 05:54:35;;;;;;;5.57;4.20;;;;;;;;;;5030515;28;20193;-77
2023/07/22 05:57:01;;;;;;;3.50;3.17;;;;;;;;;;5011395;28;20650;-77
2023/07/22 05:59:27;;;;;;;3.63;3.33;;;;;;;;;;5027775;28;20180;-74
2023/07/22 06:01:53;;;;;;;3.80;3.50;;;;;;;;;;5020106;28;20178;-75
2023/07/22 06:04:19;;;;;;;3.80;3.33;;;;;;;;;;5011346;28;20203;-74
2023/07/22 06:06:45;;;;;;;4.00;3.50;;;;;;;;;;5014117;28;20178;-75
2023/07/22 06:09:11;;;;;;;4.17;3.87;;;;;;;;;;5034364;28;20855;-76
2023/07/22 06:11:37;;;;;;;4.10;3.30;;;;;;;;;;5030277;28;20587;-77
2023/07/22 06:14:04;;;;;;;4.50;3.50;;;;;;;;;;5014807;28;20182;-74
2023/07/22 06:16:30;;;;;;;4.77;3.77;;;;;;;;;;5031074;28;20262;-76
2023/07/22 06:18:56;;;;;;;4.30;3.90;;;;;;;;;;5033223;28;20199;-76
2023/07/22 06:21:22;;;;;;;5.03;3.73;;;;;;;;;;5035773;28;20175;-74
2023/07/22 06:23:48;;;;;;;3.80;3.50;;;;;;;;;;5031528;28;21751;-73
2023/07/22 06:26:14;;;;;;;4.13;3.60;;;;;;;;;;5032329;28;20222;-72
2023/07/22 06:28:40;;;;;;;4.07;3.20;;;;;;;;;;5026026;28;20210;-76
2023/07/22 06:31:07;;;;;;;3.87;3.40;;;;;;;;;;5022977;28;20193;-75
2023/07/22 06:33:33;;;;;;;4.43;3.33;;;;;;;;;;5028528;28;20236;-76
2023/07/22 06:36:00;;;;;;;5.33;3.93;;;;;;;;;;5025328;28;20288;-75
2023/07/22 06:38:26;;;;;;;4.57;3.80;;;;;;;;;;5010381;28;20320;-75
2023/07/22 06:40:55;;;;;;;6.27;3.53;;;;;;;;;;5027942;28;20190;-76
2023/07/22 06:43:21;;;;;;;3.80;3.50;;;;;;;;;;5027062;28;20242;-78
2023/07/22 06:45:47;;;;;;;3.60;3.30;;;;;;;;;;5026537;28;20218;-75
2023/07/22 06:48:13;;;;;;;3.63;3.30;;;;;;;;;;5026493;28;20225;-75
2023/07/22 06:50:40;;;;;;;3.23;2.93;;;;;;;;;;5027780;28;20200;-75
2023/07/22 06:53:06;;;;;;;3.37;3.07;;;;;;;;;;5025699;28;20178;-72
2023/07/22 06:55:32;;;;;;;3.70;2.90;;;;;;;;;;5008005;28;20213;-75
2023/07/22 06:57:59;;;;;;;4.30;3.23;;;;;;;;;;5025812;28;20210;-75
2023/07/22 07:00:25;;;;;;;3.87;3.43;;;;;;;;;;5024903;28;20197;-76
2023/07/22 07:02:51;;;;;;;4.30;3.30;;;;;;;;;;5029100;28;20645;-77
2023/07/22 07:05:18;;;;;;;3.90;3.50;;;;;;;;;;5028376;28;20297;-77
2023/07/22 07:07:44;;;;;;;4.57;3.60;;;;;;;;;;5009186;28;20233;-77
2023/07/22 07:10:10;;;;;;;4.10;3.43;;;;;;;;;;5027420;28;20212;-77
2023/07/22 07:12:36;;;;;;;3.60;3.30;;;;;;;;;;5008729;28;20610;-76
2023/07/22 07:15:02;;;;;;;5.73;3.70;;;;;;;;;;5025907;28;20178;-76
2023/07/22 07:17:29;;;;;;;4.03;3.40;;;;;;;;;;5023473;28;20203;-77
2023/07/22 07:19:55;;;;;;;4.20;3.10;;;;;;;;;;5009113;28;20536;-78
2023/07/22 07:22:21;;;;;;;4.13;3.50;;;;;;;;;;5009463;28;20233;-77
2023/07/22 07:24:47;;;;;;;3.87;3.50;;;;;;;;;;5026599;28;20245;-77
2023/07/22 07:27:13;;;;;;;5.03;3.50;;;;;;;;;;5007879;28;20187;-77
2023/07/22 07:29:39;;;;;;;3.70;3.20;;;;;;;;;;5027227;28;20191;-78
2023/07/22 07:32:06;;;;;;;3.83;3.30;;;;;;;;;;5026732;28;20183;-78
2023/07/22 07:34:32;;;;;;;4.87;3.13;;;;;;;;;;4991512;28;20186;-74
2023/07/22 07:36:58;;;;;;;3.13;2.77;;;;;;;;;;5026340;28;20261;-75
2023/07/22 07:39:24;;;;;;;4.07;3.13;;;;;;;;;;5025268;28;20190;-74
2023/07/22 07:41:50;;;;;;;3.60;3.00;;;;;;;;;;5026268;28;20187;-75
2023/07/22 07:44:16;;;;;;;2.77;2.50;;;;;;;;;;5025971;28;20256;-75
2023/07/22 07:46:42;;;;;;;4.07;3.00;;;;;;;;;;5007095;28;20190;-74
2023/07/22 07:49:09;;;;;;;3.87;2.77;;;;;;;;;;5008726;28;20272;-76
2023/07/22 07:51:35;;;;;;;3.20;2.83;;;;;;;;;;5027257;28;20186;-74
2023/07/22 07:54:01;;;;;;;4.00;2.90;;;;;;;;;;5027517;28;20236;-77
2023/07/22 07:56:27;;;;;;;3.97;2.83;;;;;;;;;;5026182;28;20183;-77
2023/07/22 07:58:54;;;;;;;4.50;2.90;;;;;;;;;;5026518;28;20233;-78
2023/07/22 08:01:21;;;;;;;3.83;2.70;;;;;;;;;;5026688;28;20274;-78
2023/07/22 08:03:47;;;;;;;3.70;3.20;;;;;;;;;;5027116;28;20182;-77
2023/07/22 08:06:13;;;;;;;2.83;2.50;;;;;;;;;;5009441;28;20268;-78
2023/07/22 08:08:40;;;;;;;3.43;2.37;;;;;;;;;;5008358;28;20213;-78
2023/07/22 08:11:13;;;;;;;5.13;2.80;;;;;;;;;;5026069;28;20188;-77
2023/07/22 08:13:40;;;;;;;2.60;2.40;;;;;;;;;;5024416;28;20269;-78
2023/07/22 08:16:07;;;;;;;3.50;2.93;;;;;;;;;;5024565;28;20581;-78
2023/07/22 08:18:34;;;;;;;4.20;2.83;;;;;;;;;;5008296;28;20697;-75
2023/07/22 08:21:02;;;;;;;3.10;2.60;;;;;;;;;;5026054;28;20265;-78
2023/07/22 08:23:28;;;;;;;3.10;2.57;;;;;;;;;;5026908;28;20713;-78
2023/07/22 08:25:54;;;;;;;3.57;2.70;;;;;;;;;;5026827;28;20210;-78
2023/07/22 08:28:21;;;;;;;3.00;2.73;;;;;;;;;;5025514;28;20202;-78
2023/07/22 08:30:48;;;;;;;2.70;2.50;;;;;;;;;;5016797;28;20226;-78
2023/07/22 08:33:16;;;;;;;2.80;2.40;;;;;;;;;;5041818;28;20183;-78
2023/07/22 08:35:42;;;;;;;3.37;2.50;;;;;;;;;;5034611;28;20665;-78
2023/07/22 08:38:09;;;;;;;4.00;2.60;;;;;;;;;;5010861;28;20187;-76
2023/07/22 08:40:35;;;;;;;2.47;2.27;;;;;;;;;;5033504;28;20201;-77
2023/07/22 08:43:03;;;;;;;3.07;2.40;;;;;;;;;;5032307;28;20190;-78
2023/07/22 08:45:32;;;;;;;3.10;2.73;;;;;;;;;;5033490;28;20207;-77
2023/07/22 08:47:59;;;;;;;3.87;2.63;;;;;;;;;;5014880;28;20617;-78
2023/07/22 08:50:27;;;;;;;3.03;2.73;;;;;;;;;;5032063;28;20181;-77
2023/07/22 08:52:53;;;;;;;4.13;2.77;;;;;;;;;;5015354;28;20189;-77
2023/07/22 08:55:19;;;;;;;3.47;2.70;;;;;;;;;;5031584;28;20208;-76
2023/07/22 08:57:47;;;;;;;3.70;2.70;;;;;;;;;;5029632;28;20236;-78
2023/07/22 09:00:13;;;;;;;3.17;2.50;;;;;;;;;;5030823;28;20848;-78
2023/07/22 09:02:40;;;;;;;2.83;2.50;;;;;;;;;;5030742;28;20194;-77
2023/07/22 09:05:07;;;;;;;3.70;2.70;;;;;;;;;;5032429;28;20206;-78
2023/07/22 09:07:34;;;;;;;4.07;2.70;;;;;;;;;;5032473;28;20214;-77
2023/07/22 09:10:02;;;;;;;3.50;2.70;;;;;;;;;;5030651;28;20217;-78
2023/07/22 09:12:29;;;;;;;5.40;2.83;;;;;;;;;;5034151;28;20170;-78
2023/07/22 09:14:55;;;;;;;4.17;2.80;;;;;;;;;;5029248;28;20179;-77
2023/07/22 09:17:21;;;;;;;3.40;2.50;;;;;;;;;;5029119;28;20681;-79
2023/07/22 09:19:52;;;;;;;7.27;2.87;;;;;;;;;;5012205;28;20240;-79
2023/07/22 09:22:18;;;;;;;3.77;2.70;;;;;;;;;;5012411;28;20194;-78
2023/07/22 09:24:44;;;;;;;3.17;2.60;;;;;;;;;;5029905;28;20301;-79
2023/07/22 09:27:10;;;;;;;3.63;2.90;;;;;;;;;;5029811;28;20178;-78
2023/07/22 09:29:40;;;;;;;5.43;2.80;;;;;;;;;;5028695;28;20179;-78
2023/07/22 09:32:06;;;;;;;5.50;3.10;;;;;;;;;;5031397;28;20695;-78
2023/07/22 09:34:33;;;;;;;2.73;2.50;;;;;;;;;;5030350;28;20195;-78
2023/07/22 09:37:06;;;;;;;4.83;2.67;;;;;;;;;;5012301;28;20670;-76
2023/07/22 09:39:32;;;;;;;4.17;2.60;;;;;;;;;;5011670;28;20182;-75
2023/07/22 09:42:01;;;;;;;6.40;3.07;;;;;;;;;;5030790;28;20213;-77
2023/07/22 09:44:32;;;;;;;4.43;2.60;;;;;;;;;;5030377;28;20577;-78
2023/07/22 09:46:58;;;;;;;3.20;2.40;;;;;;;;;;5028777;28;20189;-78
2023/07/22 09:49:24;;;;;;;3.80;2.60;;;;;;;;;;5029091;28;20190;-78
2023/07/22 09:51:52;;;;;;;3.40;2.50;;;;;;;;;;5028751;28;20214;-78
2023/07/22 09:54:19;;;;;;;3.83;2.60;;;;;;;;;;5029322;28;20258;-78
2023/07/22 09:56:47;;;;;;;4.27;2.60;;;;;;;;;;5011400;28;20269;-78
2023/07/22 09:59:13;;;;;;;3.33;2.70;;;;;;;;;;5035944;28;20195;-76
2023/07/22 10:01:40;;;;;;;3.40;2.83;;;;;;;;;;5034288;28;20208;-76
2023/07/22 10:04:06;;;;;;;3.23;2.70;;;;;;;;;;5029543;28;20711;-78
2023/07/22 10:06:33;;;;;;;4.60;2.80;;;;;;;;;;5030178;28;20186;-77
2023/07/22 10:09:02;;;;;;;4.07;2.60;;;;;;;;;;5025988;28;21562;-79
2023/07/22 10:11:28;;;;;;;5.27;2.50;;;;;;;;;;4993938;28;20650;-77
2023/07/22 10:13:55;;;;;;;3.77;2.40;;;;;;;;;;5026174;28;20177;-78
2023/07/22 10:16:22;;;;;;;5.27;2.30;;;;;;;;;;5021552;28;20213;-78
2023/07/22 10:18:49;;;;;;;3.97;2.60;;;;;;;;;;4990484;28;20210;-78
2023/07/22 10:21:15;;;;;;;7.33;2.57;;;;;;;;;;5005660;28;20854;-77
2023/07/22 10:23:41;;;;;;;5.07;2.30;;;;;;;;;;5008771;28;20186;-80
2023/07/22 10:26:10;;;;;;;3.80;2.37;;;;;;;;;;5008930;28;20802;-79
2023/07/22 10:28:37;;;;;;;3.80;2.37;;;;;;;;;;4992835;28;20285;-83
2023/07/22 10:31:03;;;;;;;3.93;2.67;;;;;;;;;;5015366;28;20191;-80
2023/07/22 10:33:30;;;;;;;3.47;2.40;;;;;;;;;;5008604;28;20191;-79
2023/07/22 10:36:06;;;;;;;3.20;2.40;;;;;;;;;;5009172;28;20179;-80
2023/07/22 10:38:33;;;;;;;3.90;2.80;;;;;;;;;;5027762;28;20216;-80
2023/07/22 10:40:59;;;;;;;4.03;2.50;;;;;;;;;;5010166;28;20175;-80
2023/07/22 10:43:31;;;;;;;8.07;2.80;;;;;;;;;;5008696;28;20197;-78
2023/07/22 10:45:58;;;;;;;3.97;3.07;;;;;;;;;;5006932;28;20485;-79
2023/07/22 10:48:34;;;;;;;2.90;2.50;;;;;;;;;;5015992;22;20232;-78
2023/07/22 10:51:06;;;;;;;4.30;2.50;;;;;;;;;;4985074;28;20175;-79
2023/07/22 10:53:32;;;;;;;3.70;2.37;;;;;;;;;;5010773;28;20199;-79
2023/07/22 10:56:05;;;;;;;2.47;2.27;;;;;;;;;;5004039;28;20193;-79
2023/07/22 10:58:32;;;;;;;3.33;2.60;;;;;;;;;;4992793;28;20258;-77
2023/07/22 11:01:23;;;;;;;3.67;2.57;;;;;;;;;;4979480;28;20220;-76
2023/07/22 11:04:12;;;;;;;4.70;2.27;;;;;;;;;;4963180;28;20195;-76
2023/07/22 11:06:40;;;;;;;2.90;2.30;;;;;;;;;;4981455;28;20255;-76
2023/07/22 11:09:06;;;;;;;3.30;2.60;;;;;;;;;;4967659;28;20219;-76
2023/07/22 11:11:40;;;;;;;4.70;2.70;;;;;;;;;;4986298;28;20680;-77
2023/07/22 11:14:22;;;;;;;3.97;2.40;;;;;;;;;;4969783;28;20560;-76
2023/07/22 11:16:48;;;;;;;3.13;2.53;;;;;;;;;;4949075;28;20579;-76
2023/07/22 11:19:15;;;;;;;2.87;2.57;;;;;;;;;;4988880;28;20287;-76
2023/07/22 11:21:45;;;;;;;6.23;2.90;;;;;;;;;;4961637;28;20651;-76
2023/07/22 11:24:12;;;;;;;4.93;2.60;;;;;;;;;;4988310;28;20235;-76
2023/07/22 11:26:38;;;;;;;3.30;2.60;;;;;;;;;;4963556;28;20188;-76
2023/07/22 11:29:05;;;;;;;6.20;2.33;;;;;;;;;;4985148;28;20242;-77
2023/07/22 11:31:42;;;;;;;3.27;2.60;;;;;;;;;;4983866;28;20368;-76
2023/07/22 11:34:08;;;;;;;3.67;2.17;;;;;;;;;;4971446;28;20188;-76
2023/07/22 11:36:37;;;;;;;4.93;2.70;;;;;;;;;;4952469;28;20246;-76
2023/07/22 11:39:08;;;;;;;2.67;2.47;;;;;;;;;;4987001;28;20265;-76
2023/07/22 11:41:35;;;;;;;3.33;2.43;;;;;;;;;;4982235;28;20263;-76
2023/07/22 11:44:01;;;;;;;2.97;2.30;;;;;;;;;;4965280;28;20643;-79
2023/07/22 11:46:28;;;;;;;2.20;2.00;;;;;;;;;;4983248;28;20204;-78
2023/07/22 11:48:55;;;;;;;4.07;2.60;;;;;;;;;;4968530;28;20220;-79
2023/07/22 11:51:22;;;;;;;3.70;2.23;;;;;;;;;;4953015;28;20209;-79
2023/07/22 11:53:52;;;;;;;3.57;2.30;;;;;;;;;;4966950;28;21313;-79
2023/07/22 11:56:28;;;;;;;5.53;2.43;;;;;;;;;;4978555;28;20822;-76
2023/07/22 11:58:55;;;;;;;4.73;2.60;;;;;;;;;;4985376;28;20251;-76
2023/07/22 12:01:21;;;;;;;3.83;2.60;;;;;;;;;;4981749;28;20714;-75
2023/07/22 12:03:47;;;;;;;5.30;2.10;;;;;;;;;;4978965;28;20189;-76
2023/07/22 12:06:14;;;;;;;3.43;2.67;;;;;;;;;;4970195;28;20208;-77
2023/07/22 12:08:47;;;;;;;4.60;2.57;;;;;;;;;;4986361;28;20321;-79
2023/07/22 12:11:18;;;;;;;2.57;2.37;;;;;;;;;;4969669;28;20275;-77
2023/07/22 12:13:50;;;;;;;2.60;2.40;;;;;;;;;;4984753;28;20191;-80
2023/07/22 12:16:21;;;;;;;3.30;2.47;;;;;;;;;;4988624;28;20188;-80
2023/07/22 12:18:47;;;;;;;3.10;2.30;;;;;;;;;;4982282;28;20249;-78
2023/07/22 12:21:14;;;;;;;3.43;2.27;;;;;;;;;;4985263;28;20678;-77
2023/07/22 12:23:42;;;;;;;2.57;2.33;;;;;;;;;;4979422;28;20203;-76
2023/07/22 12:26:08;;;;;;;2.33;2.10;;;;;;;;;;4978261;28;21503;-78
2023/07/22 12:28:34;;;;;;;2.70;2.40;;;;;;;;;;4965443;28;20221;-77
2023/07/22 12:31:01;;;;;;;2.77;2.33;;;;;;;;;;4986101;28;20900;-79
2023/07/22 12:33:27;;;;;;;5.83;2.60;;;;;;;;;;4988563;28;20188;-78
2023/07/22 12:35:54;;;;;;;3.13;2.60;;;;;;;;;;4986361;28;20484;-80
2023/07/22 12:38:20;;;;;;;3.13;2.43;;;;;;;;;;4987410;28;20212;-80
2023/07/22 12:40:46;;;;;;;3.77;2.37;;;;;;;;;;4968299;28;20216;-79
2023/07/22 12:43:12;;;;;;;2.87;2.20;;;;;;;;;;4969592;28;20614;-77
2023/07/22 12:45:39;;;;;;;4.70;2.40;;;;;;;;;;4948973;28;20246;-79
2023/07/22 12:48:05;;;;;;;2.70;2.30;;;;;;;;;;4986546;28;20219;-82
2023/07/22 12:50:31;;;;;;;3.30;2.40;;;;;;;;;;4980106;28;20187;-79
2023/07/22 12:53:01;;;;;;;3.77;2.30;;;;;;;;;;4992700;28;20196;-78
2023/07/22 12:55:27;;;;;;;2.27;2.07;;;;;;;;;;4948251;28;20199;-76
2023/07/22 12:57:53;;;;;;;3.10;2.60;;;;;;;;;;4983547;28;20326;-76
2023/07/22 13:00:20;;;;;;;4.00;2.40;;;;;;;;;;4982319;28;20196;-76
2023/07/22 13:02:47;;;;;;;3.10;2.80;;;;;;;;;;4982757;28;20175;-76
2023/07/22 13:05:13;;;;;;;3.03;2.50;;;;;;;;;;4979245;28;20696;-75
2023/07/22 13:07:40;;;;;;;3.33;2.47;;;;;;;;;;4979358;28;20184;-76
2023/07/22 13:10:10;;;;;;;3.10;2.80;;;;;;;;;;4986035;28;20676;-74
2023/07/22 13:12:37;;;;;;;2.70;2.13;;;;;;;;;;4984419;28;20238;-78
2023/07/22 13:15:03;;;;;;;4.33;2.67;;;;;;;;;;4981016;28;20203;-79
2023/07/22 13:17:30;;;;;;;3.63;2.57;;;;;;;;;;4984809;28;20243;-78
2023/07/22 13:19:56;;;;;;;2.73;2.30;;;;;;;;;;4977046;28;20211;-78
2023/07/22 13:22:22;;;;;;;5.40;2.80;;;;;;;;;;4983733;28;20284;-80
2023/07/22 13:24:48;;;;;;;4.60;2.40;;;;;;;;;;4978523;28;20212;-78
2023/07/22 13:27:14;;;;;;;4.00;2.83;;;;;;;;;;4980168;28;20178;-78
2023/07/22 13:29:40;;;;;;;2.90;2.70;;;;;;;;;;4966343;28;20547;-78
2023/07/22 13:32:07;;;;;;;5.23;2.70;;;;;;;;;;4950054;28;20189;-78
2023/07/22 13:34:33;;;;;;;2.80;2.60;;;;;;;;;;4968092;28;20214;-78
2023/07/22 13:36:59;;;;;;;3.20;2.73;;;;;;;;;;4977167;28;20191;-78
2023/07/22 13:39:25;;;;;;;3.30;2.80;;;;;;;;;;4983303;28;20214;-78
2023/07/22 13:41:51;;;;;;;4.73;2.80;;;;;;;;;;4967892;28;20197;-79
2023/07/22 13:44:17;;;;;;;3.87;3.00;;;;;;;;;;4955572;28;20198;-78
2023/07/22 13:46:43;;;;;;;3.27;2.70;;;;;;;;;;4985861;28;20232;-79
2023/07/22 13:49:09;;;;;;;3.20;2.90;;;;;;;;;;4964558;28;20224;-79
2023/07/22 13:51:35;;;;;;;2.90;2.70;;;;;;;;;;4980191;28;20191;-79
2023/07/22 13:54:02;;;;;;;4.77;2.80;;;;;;;;;;4984625;28;20181;-78
2023/07/22 13:56:28;;;;;;;3.00;2.70;;;;;;;;;;4983267;28;20258;-78
2023/07/22 13:58:59;;;;;;;4.43;3.00;;;;;;;;;;4965039;28;20632;-78
2023/07/22 14:01:25;;;;;;;2.97;2.50;;;;;;;;;;4966391;28;20189;-78
2023/07/22 14:03:51;;;;;;;3.47;2.90;;;;;;;;;;4949980;28;20233;-79
2023/07/22 14:06:17;;;;;;;2.90;2.70;;;;;;;;;;4983087;28;20305;-78
2023/07/22 14:08:43;;;;;;;3.13;2.73;;;;;;;;;;4982256;28;20200;-78
2023/07/22 14:11:09;;;;;;;4.50;2.50;;;;;;;;;;4964241;28;20230;-78
2023/07/22 14:13:35;;;;;;;3.27;2.60;;;;;;;;;;4980938;28;20200;-78
2023/07/22 14:16:02;;;;;;;3.23;2.40;;;;;;;;;;4980927;28;20261;-78
2023/07/22 14:18:28;;;;;;;4.23;2.87;;;;;;;;;;4983808;28;20214;-79
2023/07/22 14:20:54;;;;;;;2.70;2.50;;;;;;;;;;4979679;28;20490;-78
2023/07/22 14:23:20;;;;;;;4.63;2.83;;;;;;;;;;4983679;28;20185;-78
2023/07/22 14:25:46;;;;;;;4.73;2.83;;;;;;;;;;4982171;28;20964;-78
2023/07/22 14:28:13;;;;;;;3.53;2.80;;;;;;;;;;4988489;28;20289;-78
2023/07/22 14:30:39;;;;;;;4.20;2.70;;;;;;;;;;4983489;28;20208;-77
2023/07/22 14:33:05;;;;;;;2.80;2.60;;;;;;;;;;4986897;28;20765;-77
2023/07/22 14:35:34;;;;;;;3.93;2.90;;;;;;;;;;4989466;28;20289;-78
2023/07/22 14:38:01;;;;;;;3.10;2.73;;;;;;;;;;4982112;28;20362;-77
2023/07/22 14:40:27;;;;;;;3.83;2.60;;;;;;;;;;4986389;28;20180;-78